Time;durP1;ratioP1;P1;durP2;ratioP2;P2;SDS_P1;SDS_P2;PMS_P1;PMS_P2;Temp;Humidity;BMP_temperature;BMP_pressure;BME280_temperature;BME280_humidity;BME280_pressure;Samples;Min_cycle;Max_cycle;Signal;HPM_P1;HPM_P2
2022/03/17 00:02:18;;;;;;;25.83;15.65;;;;;;;6.45;73.91;95864.69;4990998;28;20030;-83
2022/03/17 00:04:43;;;;;;;27.70;14.88;;;;;;;5.88;74.39;95781.22;5009364;28;20493;-83
2022/03/17 00:07:09;;;;;;;28.25;16.70;;;;;;;6.40;75.09;95861.94;4990996;28;20026;-83
2022/03/17 00:09:34;;;;;;;28.95;17.20;;;;;;;5.86;74.02;95768.28;4991332;28;20095;-83
2022/03/17 00:12:00;;;;;;;30.10;17.00;;;;;;;5.87;73.37;95766.44;4991875;28;20061;-83
2022/03/17 00:14:25;;;;;;;26.20;17.25;;;;;;;5.25;74.43;95680.06;5008867;28;20036;-84
2022/03/17 00:16:51;;;;;;;30.42;17.65;;;;;;;6.33;74.97;95861.22;5000178;28;20500;-83
2022/03/17 00:19:16;;;;;;;27.40;17.02;;;;;;;5.29;74.17;95699.59;5029679;28;20415;-84
2022/03/17 00:21:42;;;;;;;28.05;17.10;;;;;;;5.85;74.32;95786.91;5029313;28;20037;-83
2022/03/17 00:24:07;;;;;;;27.80;17.10;;;;;;;6.01;75.31;95823.94;5029713;28;20037;-82
2022/03/17 00:26:34;;;;;;;35.63;18.63;;;;;;;6.34;75.82;95870.75;5014176;28;20057;-82
2022/03/17 00:29:02;;;;;;;31.05;17.00;;;;;;;5.67;74.99;95737.81;5016789;28;20057;-82
2022/03/17 00:31:28;;;;;;;30.23;17.92;;;;;;;5.67;76.18;95732.56;5015333;28;20458;-83
2022/03/17 00:33:54;;;;;;;33.95;19.13;;;;;;;6.44;75.52;95855.16;5029532;28;20037;-84
2022/03/17 00:36:19;;;;;;;36.60;19.25;;;;;;;6.49;75.49;95876.34;5011461;28;20040;-83
2022/03/17 00:38:45;;;;;;;31.55;18.55;;;;;;;6.06;75.36;95792.44;5029128;28;20531;-83
2022/03/17 00:41:11;;;;;;;33.75;20.10;;;;;;;5.95;76.37;95797.72;5028875;28;20581;-83
2022/03/17 00:43:37;;;;;;;38.78;19.95;;;;;;;5.75;76.05;95779.59;5011025;28;20033;-83
2022/03/17 00:46:02;;;;;;;49.03;26.48;;;;;;;5.96;77.17;95841.41;5010615;28;20038;-83
2022/03/17 00:48:29;;;;;;;59.78;30.52;;;;;;;5.47;76.77;95745.25;5028947;28;20028;-84
2022/03/17 00:50:55;;;;;;;46.03;26.08;;;;;;;6.36;76.52;95879.22;5010948;28;20029;-83
2022/03/17 00:53:20;;;;;;;41.88;23.13;;;;;;;5.28;76.71;95770.81;5028933;28;20053;-83
2022/03/17 00:55:46;;;;;;;43.05;21.70;;;;;;;4.56;77.95;95701.72;5010808;28;20124;-82
2022/03/17 00:58:11;;;;;;;40.38;22.70;;;;;;;4.87;78.54;95774.25;5028513;28;20099;-83
2022/03/17 01:00:38;;;;;;;45.95;23.25;;;;;;;5.27;79.15;95851.53;5011128;28;20039;-83
2022/03/17 01:03:05;;;;;;;44.72;24.77;;;;;;;5.48;79.50;95915.22;5033700;28;20525;-83
2022/03/17 01:05:31;;;;;;;41.33;22.42;;;;;;;4.61;78.93;95776.19;5016321;28;20500;-83
2022/03/17 01:07:56;;;;;;;37.30;22.60;;;;;;;4.73;78.65;95785.97;5033106;28;20033;-83
2022/03/17 01:10:23;;;;;;;37.95;20.35;;;;;;;4.55;78.50;95773.66;5015626;28;20538;-84
2022/03/17 01:12:49;;;;;;;33.22;20.35;;;;;;;4.60;79.00;95774.59;5015856;28;20026;-83
2022/03/17 01:15:17;;;;;;;38.97;22.20;;;;;;;4.59;78.65;95790.56;5034350;28;20041;-84
2022/03/17 01:17:43;;;;;;;38.03;21.80;;;;;;;4.48;78.36;95738.78;5015403;28;20045;-83
2022/03/17 01:20:10;;;;;;;34.70;20.95;;;;;;;5.15;78.36;95858.59;5033526;28;20106;-83
2022/03/17 01:22:36;;;;;;;32.28;18.88;;;;;;;4.80;78.20;95834.81;5015524;28;20030;-83
2022/03/17 01:25:02;;;;;;;31.20;17.52;;;;;;;5.36;78.18;95902.00;5015227;28;20029;-83
2022/03/17 01:27:29;;;;;;;29.23;16.20;;;;;;;4.57;78.28;95775.06;5015758;28;20065;-83
2022/03/17 01:29:54;;;;;;;32.70;17.23;;;;;;;5.37;78.36;95893.91;5032954;28;20025;-83
2022/03/17 01:32:21;;;;;;;25.75;15.10;;;;;;;5.08;77.23;95805.31;5033753;28;20030;-83
2022/03/17 01:34:47;;;;;;;29.58;17.38;;;;;;;5.80;77.50;95911.28;5014849;28;20033;-83
2022/03/17 01:37:13;;;;;;;29.83;15.82;;;;;;;5.14;77.91;95793.09;5032944;28;20466;-83
2022/03/17 01:39:39;;;;;;;26.60;15.25;;;;;;;5.50;77.46;95866.59;5014438;28;20030;-83
2022/03/17 01:42:07;;;;;;;26.58;16.08;;;;;;;5.80;77.04;95935.00;5032852;28;20072;-83
2022/03/17 01:44:33;;;;;;;24.55;15.73;;;;;;;5.36;77.17;95826.53;5032446;28;20130;-83
2022/03/17 01:49:43;;;;;;;26.27;15.82;;;;;;;5.62;77.09;95858.75;5032012;28;20048;-83
2022/03/17 01:52:09;;;;;;;25.92;13.90;;;;;;;5.88;76.51;95913.63;5014092;28;20021;-83
2022/03/17 01:54:36;;;;;;;26.75;14.13;;;;;;;5.72;76.39;95898.50;5014725;28;20022;-83
2022/03/17 01:57:03;;;;;;;22.52;13.32;;;;;;;5.68;76.81;95906.00;5033226;28;20060;-83
2022/03/17 01:59:30;;;;;;;23.08;12.48;;;;;;;5.43;76.21;95856.19;5015432;28;20036;-83
2022/03/17 02:01:56;;;;;;;24.00;14.10;;;;;;;5.13;76.06;95804.63;5009874;28;20473;-83
2022/03/17 02:04:22;;;;;;;21.33;11.35;;;;;;;5.31;76.54;95842.19;5012558;28;20183;-82
2022/03/17 02:06:48;;;;;;;17.75;10.18;;;;;;;5.01;75.86;95792.25;5012800;28;20038;-83
2022/03/17 02:09:13;;;;;;;17.33;10.88;;;;;;;5.72;76.23;95895.84;4994129;28;20169;-82
2022/03/17 02:14:24;;;;;;;12.07;7.03;;;;;;;5.97;74.56;95957.03;5016698;28;20092;-83
2022/03/17 02:16:51;;;;;;;13.48;7.70;;;;;;;6.02;75.11;95938.75;4993811;28;20493;-83
2022/03/17 02:19:17;;;;;;;13.57;8.13;;;;;;;5.87;74.46;95916.50;4993678;28;20106;-83
2022/03/17 02:21:44;;;;;;;10.30;7.20;;;;;;;5.74;74.99;95933.25;5010912;28;20076;-83
2022/03/17 02:26:55;;;;;;;16.10;8.95;;;;;;;5.96;76.39;95950.16;5011870;28;20048;-82
2022/03/17 02:29:21;;;;;;;17.38;9.95;;;;;;;5.69;75.96;95897.09;4993323;28;20152;-83
2022/03/17 02:31:46;;;;;;;14.30;9.70;;;;;;;5.40;75.69;95855.84;5011828;28;20109;-83
2022/03/17 02:34:11;;;;;;;15.73;7.88;;;;;;;5.43;75.78;95860.63;5011120;28;20026;-83
2022/03/17 02:36:45;;;;;;;12.88;6.18;;;;;;;5.08;74.43;95838.69;4993663;28;20033;-83
2022/03/17 02:39:11;;;;;;;15.25;7.13;;;;;;;4.92;74.34;95785.72;4993356;28;20080;-83
2022/03/17 02:41:36;;;;;;;11.32;6.70;;;;;;;5.68;73.63;95907.84;4994405;28;20034;-82
2022/03/17 02:44:03;;;;;;;12.63;7.75;;;;;;;5.53;73.38;95884.56;5010656;28;20030;-81
2022/03/17 02:46:28;;;;;;;10.40;7.35;;;;;;;5.68;73.12;95895.50;5011136;28;20374;-82
2022/03/17 02:48:54;;;;;;;12.30;8.45;;;;;;;5.30;73.35;95827.44;5010329;28;20034;-82
2022/03/17 02:51:19;;;;;;;13.07;8.05;;;;;;;5.75;72.42;95900.66;5011340;28;20061;-82
2022/03/17 02:53:44;;;;;;;10.77;7.18;;;;;;;5.74;72.65;95907.75;4993340;28;20045;-82
2022/03/17 02:56:10;;;;;;;13.65;7.30;;;;;;;5.48;72.94;95858.16;4993150;28;20156;-81
2022/03/17 02:58:36;;;;;;;11.20;7.05;;;;;;;6.19;72.58;95971.28;4993026;28;20373;-82
2022/03/17 03:01:01;;;;;;;12.02;7.60;;;;;;;6.00;71.75;95961.06;5010478;28;20139;-83
2022/03/17 03:03:27;;;;;;;12.75;8.18;;;;;;;6.12;71.72;95975.84;4993091;28;20045;-83
2022/03/17 03:05:52;;;;;;;13.73;8.45;;;;;;;5.70;73.10;95905.78;4993034;28;20030;-83
2022/03/17 03:08:17;;;;;;;15.02;9.70;;;;;;;5.49;72.61;95896.59;5010717;28;20033;-82
2022/03/17 03:10:44;;;;;;;14.70;8.23;;;;;;;5.21;71.89;95897.16;4992530;28;20069;-82
2022/03/17 03:13:10;;;;;;;14.45;8.52;;;;;;;4.92;72.33;95875.06;5010632;28;20528;-83
2022/03/17 03:15:35;;;;;;;13.15;8.40;;;;;;;5.42;72.80;95917.69;4992554;28;20064;-84
2022/03/17 03:18:01;;;;;;;14.23;8.32;;;;;;;5.29;72.06;95878.44;5002469;28;20038;-82
2022/03/17 03:20:27;;;;;;;12.20;7.00;;;;;;;5.56;72.63;95943.84;5012156;28;20087;-82
2022/03/17 03:22:52;;;;;;;14.43;8.48;;;;;;;5.71;72.38;95986.34;5015751;28;20413;-81
2022/03/17 03:25:18;;;;;;;11.82;7.93;;;;;;;5.40;71.71;95921.59;5010835;28;20034;-83
2022/03/17 03:27:44;;;;;;;11.88;7.80;;;;;;;5.16;71.82;95886.50;4992814;28;20811;-83
2022/03/17 03:30:11;;;;;;;14.38;7.72;;;;;;;5.67;71.70;95967.56;5027832;28;20427;-82
2022/03/17 03:32:39;;;;;;;14.45;8.73;;;;;;;5.74;70.98;95999.88;5011461;28;20088;-82
2022/03/17 03:37:22;;;;;;;15.70;9.85;;;;;;;5.16;70.82;95904.09;4992450;28;20357;-82
2022/03/17 03:37:51;;;;;;;18.48;11.07;;;;;;;5.59;70.92;95991.56;5009808;28;20041;-82
2022/03/17 03:40:17;;;;;;;18.95;10.48;;;;;;;5.13;70.26;95934.25;4991772;28;20033;-82
2022/03/17 03:42:43;;;;;;;16.95;10.52;;;;;;;5.18;71.37;95934.44;4992010;28;20563;-82
2022/03/17 03:45:09;;;;;;;21.23;11.43;;;;;;;4.80;70.94;95865.53;4992473;28;20044;-82
2022/03/17 03:47:34;;;;;;;18.77;11.88;;;;;;;4.82;71.17;95863.47;5010122;28;20029;-83
2022/03/17 03:50:00;;;;;;;23.55;12.25;;;;;;;5.47;71.79;96003.06;4992144;28;20034;-81
2022/03/17 03:52:25;;;;;;;18.60;12.00;;;;;;;4.78;71.78;95884.13;5008365;28;20036;-81
2022/03/17 03:54:50;;;;;;;20.48;12.38;;;;;;;3.64;71.50;95742.16;4992254;28;20033;-82
2022/03/17 03:57:16;;;;;;;20.75;12.85;;;;;;;4.94;72.35;95980.00;5005634;28;20053;-81
2022/03/17 03:59:42;;;;;;;23.20;13.50;;;;;;;4.66;72.08;95941.03;5004982;28;20048;-81
2022/03/17 04:02:10;;;;;;;20.98;12.15;;;;;;;4.26;72.41;95890.75;4988773;28;20030;-81
2022/03/17 04:04:39;;;;;;;22.23;13.55;;;;;;;4.47;72.92;95936.81;4990113;28;20030;-82
2022/03/17 04:07:08;;;;;;;20.80;12.90;;;;;;;4.36;72.31;95929.63;4988719;28;20030;-82
2022/03/17 04:09:38;;;;;;;22.55;13.20;;;;;;;4.78;72.14;95981.38;4989499;28;20500;-83
2022/03/17 04:12:05;;;;;;;22.48;14.05;;;;;;;4.91;72.86;96028.53;4988800;28;20031;-83
2022/03/17 04:14:31;;;;;;;22.58;12.77;;;;;;;4.52;73.18;95995.53;4988310;28;20041;-81
2022/03/17 04:16:57;;;;;;;25.15;13.75;;;;;;;4.60;72.92;95999.72;4988571;28;20541;-82
2022/03/17 04:19:24;;;;;;;22.52;14.43;;;;;;;4.92;73.53;96050.38;4988335;28;20041;-82
2022/03/17 04:21:50;;;;;;;24.58;15.05;;;;;;;4.41;73.62;95984.94;4989719;28;20034;-82
2022/03/17 04:24:17;;;;;;;22.80;13.20;;;;;;;4.35;73.62;95965.59;4988336;28;20042;-81
2022/03/17 04:26:44;;;;;;;20.80;13.73;;;;;;;4.77;73.54;96032.31;4990149;28;20026;-82
2022/03/17 04:29:10;;;;;;;22.60;13.90;;;;;;;5.04;73.61;96077.53;4988328;28;20306;-82
2022/03/17 04:31:38;;;;;;;22.27;14.07;;;;;;;4.68;73.47;96019.66;4990023;28;20096;-84
2022/03/17 04:34:03;;;;;;;20.58;12.82;;;;;;;3.99;72.67;95881.47;4988281;28;20121;-83
2022/03/17 04:36:30;;;;;;;20.85;12.30;;;;;;;4.91;72.88;96054.03;4988839;28;20153;-83
2022/03/17 04:38:56;;;;;;;23.17;12.68;;;;;;;4.88;72.78;96092.03;4989999;28;20493;-82
2022/03/17 04:41:22;;;;;;;20.45;13.35;;;;;;;4.24;73.93;96071.31;4989423;28;20106;-82
2022/03/17 04:43:47;;;;;;;22.17;12.13;;;;;;;4.38;74.28;96043.94;4990309;28;20033;-81
2022/03/17 04:46:13;;;;;;;20.15;12.82;;;;;;;3.56;74.07;95913.69;4991571;28;20072;-82
2022/03/17 04:48:39;;;;;;;21.88;12.27;;;;;;;4.18;73.63;96030.16;4990203;28;20042;-82
2022/03/17 04:51:05;;;;;;;21.92;12.30;;;;;;;4.44;74.09;96089.56;4987751;28;20037;-83
2022/03/17 04:53:32;;;;;;;18.35;12.43;;;;;;;4.28;74.22;96039.16;4989909;28;20057;-83
2022/03/17 04:56:05;;;;;;;19.52;12.13;;;;;;;4.04;74.23;96002.41;4987806;28;20034;-83
2022/03/17 04:58:33;;;;;;;19.75;11.73;;;;;;;4.12;73.85;96012.66;4992044;28;20066;-83
2022/03/17 05:01:00;;;;;;;19.08;11.88;;;;;;;3.73;73.72;95937.59;4988954;28;20039;-82
2022/03/17 05:03:26;;;;;;;19.73;12.05;;;;;;;4.53;74.01;96085.66;4989601;28;20034;-82
2022/03/17 05:05:52;;;;;;;20.13;11.00;;;;;;;3.97;73.42;95997.16;4986910;28;20038;-82
2022/03/17 05:08:18;;;;;;;19.77;11.85;;;;;;;4.72;73.66;96105.75;4989569;28;20134;-83
2022/03/17 05:10:44;;;;;;;19.52;11.20;;;;;;;3.72;74.56;95984.03;4983395;28;20474;-84
2022/03/17 05:13:11;;;;;;;20.67;11.35;;;;;;;3.74;73.92;96002.16;4981875;28;20098;-81
2022/03/17 05:15:37;;;;;;;16.40;10.65;;;;;;;4.61;74.36;96109.03;4976467;28;20030;-82
2022/03/17 05:18:07;;;;;;;19.73;11.02;;;;;;;4.34;73.35;96071.66;4988214;28;20057;-83
2022/03/17 05:20:37;;;;;;;17.73;10.73;;;;;;;4.50;73.30;96094.75;4986586;28;20065;-82
2022/03/17 05:23:04;;;;;;;19.60;11.25;;;;;;;4.11;73.73;96021.53;4981879;28;20039;-82
2022/03/17 05:25:31;;;;;;;18.05;11.35;;;;;;;4.07;73.89;96036.09;4976415;28;20027;-83
2022/03/17 05:27:57;;;;;;;21.67;10.75;;;;;;;4.41;72.88;96080.31;4984125;28;20049;-83
2022/03/17 05:30:23;;;;;;;17.30;10.32;;;;;;;4.22;73.49;96020.84;4981410;28;20124;-84
2022/03/17 05:32:49;;;;;;;20.10;11.27;;;;;;;3.93;73.47;95980.25;4973265;28;20069;-84
2022/03/17 05:35:15;;;;;;;19.85;10.90;;;;;;;3.64;72.45;95955.41;4978369;28;20037;-84
2022/03/17 05:37:42;;;;;;;16.42;9.45;;;;;;;4.60;73.06;96075.91;4989131;28;20038;-85
2022/03/17 05:40:14;;;;;;;20.35;11.43;;;;;;;4.89;73.51;96140.97;4982505;28;20087;-84
2022/03/17 05:42:44;;;;;;;20.20;9.90;;;;;;;4.96;72.84;96141.72;4975432;28;20261;-85
2022/03/17 05:45:11;;;;;;;13.15;8.48;;;;;;;3.83;72.57;96037.63;4973515;28;20037;-85
2022/03/17 05:47:38;;;;;;;11.68;7.38;;;;;;;3.71;72.19;96032.25;4988050;28;20116;-85
2022/03/17 05:50:06;;;;;;;11.65;6.88;;;;;;;4.01;71.68;96055.31;4980300;28;20065;-86
2022/03/17 05:52:31;;;;;;;13.07;7.85;;;;;;;3.71;72.28;96060.31;4984600;28;20142;-84
2022/03/17 05:54:57;;;;;;;12.55;6.97;;;;;;;4.11;72.31;96156.22;4975623;28;20090;-85
2022/03/17 05:57:23;;;;;;;15.48;7.70;;;;;;;4.44;73.37;96181.50;4977055;28;20046;-85
2022/03/17 05:59:48;;;;;;;15.48;7.72;;;;;;;4.45;73.86;96180.47;4980020;28;20038;-85
2022/03/17 06:02:14;;;;;;;14.38;8.38;;;;;;;3.55;72.69;96039.78;4983125;28;20243;-84
2022/03/17 06:04:41;;;;;;;13.43;7.90;;;;;;;4.22;72.92;96137.16;4975717;28;20615;-85
2022/03/17 06:07:07;;;;;;;11.48;7.07;;;;;;;4.31;73.29;96164.00;4978661;28;20370;-84
2022/03/17 06:09:32;;;;;;;14.73;8.38;;;;;;;2.36;73.71;95869.09;4979907;28;20297;-85
2022/03/17 06:11:58;;;;;;;13.82;8.35;;;;;;;4.24;74.22;96131.72;4984738;28;20034;-84
2022/03/17 06:14:24;;;;;;;12.50;8.05;;;;;;;4.64;74.59;96184.81;4989892;28;20512;-84
2022/03/17 06:16:50;;;;;;;14.85;7.60;;;;;;;4.53;72.84;96185.50;4975811;28;20065;-84
2022/03/17 06:19:16;;;;;;;11.90;6.90;;;;;;;4.21;72.65;96124.25;4976598;28;20026;-85
2022/03/17 06:21:41;;;;;;;11.50;6.60;;;;;;;4.40;72.55;96168.00;4976958;28;20058;-83
2022/03/17 06:24:07;;;;;;;12.38;7.15;;;;;;;4.51;72.68;96177.81;4971124;28;20058;-82
2022/03/17 06:26:32;;;;;;;14.65;7.22;;;;;;;3.69;72.15;96067.56;4977489;28;20444;-81
2022/03/17 06:28:58;;;;;;;18.05;8.25;;;;;;;3.12;73.65;95981.88;4984824;28;20034;-83
2022/03/17 06:31:23;;;;;;;11.90;6.45;;;;;;;3.64;73.47;96065.59;4974218;28;20041;-83
2022/03/17 06:33:49;;;;;;;14.90;7.05;;;;;;;3.96;73.23;96113.69;4977828;28;20456;-83
2022/03/17 06:36:14;;;;;;;17.10;7.35;;;;;;;2.34;72.49;95874.50;4987370;28;20082;-83
2022/03/17 06:38:39;;;;;;;11.25;6.28;;;;;;;4.32;73.40;96167.44;4977891;28;20026;-82
2022/03/17 06:41:05;;;;;;;12.43;7.05;;;;;;;4.47;73.92;96183.72;4974443;28;20271;-83
2022/03/17 06:43:31;;;;;;;10.32;6.22;;;;;;;4.37;73.00;96225.38;4975171;28;20446;-83
2022/03/17 06:45:56;;;;;;;11.50;6.53;;;;;;;4.47;74.19;96220.47;4973379;28;20027;-83
2022/03/17 06:48:21;;;;;;;11.20;7.70;;;;;;;3.93;74.49;96147.41;4976948;28;20462;-83
2022/03/17 06:50:47;;;;;;;9.88;6.70;;;;;;;4.39;74.28;96229.41;4977403;28;20057;-83
2022/03/17 06:53:13;;;;;;;16.25;6.68;;;;;;;3.91;74.89;96152.84;4976519;28;20361;-86
2022/03/17 06:55:38;;;;;;;18.95;9.60;;;;;;;4.03;74.86;96189.78;4979132;28;20065;-86
2022/03/17 06:58:04;;;;;;;26.70;10.95;;;;;;;1.46;75.67;95803.38;4989108;28;20160;-84
2022/03/17 07:00:29;;;;;;;13.35;7.88;;;;;;;3.40;75.62;96095.13;4987726;28;20490;-84
2022/03/17 07:02:55;;;;;;;12.98;8.10;;;;;;;3.15;75.52;96060.91;4988682;28;20068;-84
2022/03/17 07:05:20;;;;;;;16.67;9.25;;;;;;;4.33;74.63;96250.44;4982585;28;20034;-84
2022/03/17 07:07:46;;;;;;;18.02;8.90;;;;;;;2.98;74.76;96057.09;4987385;28;20117;-82
2022/03/17 07:10:13;;;;;;;16.27;8.82;;;;;;;3.88;75.42;96176.91;5000515;28;20134;-83
2022/03/17 07:12:41;;;;;;;18.55;9.32;;;;;;;3.86;75.04;96179.72;4973577;28;20034;-83
2022/03/17 07:15:08;;;;;;;15.50;8.77;;;;;;;2.98;75.54;96047.41;4999027;28;20029;-83
2022/03/17 07:17:41;;;;;;;25.25;10.20;;;;;;;4.39;75.76;96258.28;4976857;28;20479;-84
2022/03/17 07:20:09;;;;;;;22.45;10.85;;;;;;;3.62;75.87;96135.00;4982715;28;20037;-84
2022/03/17 07:22:34;;;;;;;18.75;10.13;;;;;;;4.42;75.70;96267.59;4982528;28;20037;-84
2022/03/17 07:25:01;;;;;;;16.90;9.85;;;;;;;4.46;74.74;96258.28;4985456;28;20204;-83
2022/03/17 07:27:26;;;;;;;17.02;10.68;;;;;;;3.75;76.25;96164.63;4996402;28;20133;-84
2022/03/17 07:29:52;;;;;;;17.42;10.27;;;;;;;3.47;75.09;96124.75;4981859;28;20413;-84
2022/03/17 07:32:18;;;;;;;19.42;11.05;;;;;;;4.53;75.60;96269.56;4979833;28;20050;-83
2022/03/17 07:34:46;;;;;;;20.77;12.10;;;;;;;4.00;75.67;96192.81;4996765;28;20042;-83
2022/03/17 07:37:11;;;;;;;24.05;11.20;;;;;;;4.03;76.40;96195.84;5004270;28;20532;-85
2022/03/17 07:39:38;;;;;;;19.70;12.07;;;;;;;3.71;76.80;96134.56;4984961;28;20049;-84
2022/03/17 07:42:04;;;;;;;21.73;12.02;;;;;;;4.54;76.25;96252.78;4985127;28;20045;-85
2022/03/17 07:44:30;;;;;;;17.83;10.73;;;;;;;3.82;75.33;96156.72;5006060;28;20041;-83
2022/03/17 07:46:56;;;;;;;17.17;10.13;;;;;;;3.50;75.28;96126.97;4988802;28;20092;-81
2022/03/17 07:49:22;;;;;;;22.02;12.32;;;;;;;3.71;74.27;96141.63;4999512;28;20061;-83
2022/03/17 07:51:47;;;;;;;22.48;11.65;;;;;;;4.28;75.02;96245.81;5001815;28;20364;-84
2022/03/17 07:54:13;;;;;;;24.50;14.13;;;;;;;3.89;76.58;96187.16;4998435;28;20562;-84
2022/03/17 07:56:38;;;;;;;26.27;11.80;;;;;;;3.29;77.05;96080.81;4985246;28;20046;-83
2022/03/17 07:59:04;;;;;;;23.75;16.08;;;;;;;4.36;75.50;96227.19;4981160;28;20912;-82
2022/03/17 08:01:29;;;;;;;29.77;16.67;;;;;;;4.58;75.94;96265.28;4975359;28;20512;-82
2022/03/17 08:03:55;;;;;;;26.98;16.17;;;;;;;4.53;75.14;96232.78;4981440;28;20040;-82
2022/03/17 08:06:25;;;;;;;25.13;13.43;;;;;;;4.89;75.30;96284.72;4978551;28;20041;-82
2022/03/17 08:08:51;;;;;;;24.95;12.50;;;;;;;3.74;74.48;96126.25;4979869;28;20046;-83
2022/03/17 08:11:17;;;;;;;23.15;12.52;;;;;;;3.91;73.96;96126.63;5000171;28;20095;-83
2022/03/17 08:13:42;;;;;;;24.92;13.45;;;;;;;3.39;74.67;96077.78;4983698;28;20037;-84
2022/03/17 08:16:10;;;;;;;23.05;12.45;;;;;;;4.95;74.90;96287.34;4982474;28;20125;-83
2022/03/17 08:18:36;;;;;;;27.60;13.07;;;;;;;4.99;75.09;96279.81;4976497;28;20074;-82
2022/03/17 08:21:03;;;;;;;24.80;11.93;;;;;;;3.80;74.73;96119.41;4986998;28;20816;-83
2022/03/17 08:23:29;;;;;;;19.23;12.32;;;;;;;4.25;75.93;96199.78;4981479;28;20100;-82
2022/03/17 08:25:54;;;;;;;19.45;13.00;;;;;;;4.63;76.45;96227.88;4985394;28;20472;-82
2022/03/17 08:28:20;;;;;;;23.52;13.02;;;;;;;4.10;74.58;96133.59;4982767;28;20497;-82
2022/03/17 08:30:46;;;;;;;22.08;13.13;;;;;;;3.99;74.87;96143.94;4990491;28;20124;-83
2022/03/17 08:33:17;;;;;;;23.38;12.95;;;;;;;5.03;75.07;96283.66;4976712;28;20523;-82
2022/03/17 08:35:44;;;;;;;20.73;13.17;;;;;;;3.48;75.39;96069.47;4973181;28;20837;-83
2022/03/17 08:38:09;;;;;;;26.70;14.30;;;;;;;4.58;75.86;96212.72;4978749;28;20286;-82
2022/03/17 08:40:38;;;;;;;25.52;14.60;;;;;;;4.78;75.45;96241.53;4982196;28;20053;-82
2022/03/17 08:43:08;;;;;;;25.67;14.52;;;;;;;4.27;75.85;96155.72;4980262;28;20034;-83
2022/03/17 08:51:03;;;;;;;27.20;15.73;;;;;;;4.48;75.15;96151.19;4981525;28;20581;-84
2022/03/17 08:53:28;;;;;;;26.60;17.58;;;;;;;4.92;74.70;96229.13;4978838;28;20537;-82
2022/03/17 08:55:54;;;;;;;27.88;17.60;;;;;;;5.13;74.83;96262.94;4970279;28;20100;-82
2022/03/17 08:58:19;;;;;;;25.65;17.00;;;;;;;4.92;75.72;96300.09;4978370;28;20086;-82
2022/03/17 09:00:45;;;;;;;26.33;17.25;;;;;;;4.57;75.02;96211.16;4998212;28;20057;-81
2022/03/17 09:03:11;;;;;;;33.42;19.80;;;;;;;5.07;76.15;96276.94;4985238;28;20041;-83
2022/03/17 09:05:37;;;;;;;36.95;21.55;;;;;;;5.31;75.94;96299.03;4989990;28;20136;-84
2022/03/17 09:08:05;;;;;;;28.83;18.80;;;;;;;3.60;75.14;96018.97;5001337;28;20045;-83
2022/03/17 09:10:34;;;;;;;27.00;17.92;;;;;;;2.50;74.15;95866.22;5003512;28;20080;-83
2022/03/17 09:13:07;;;;;;;32.63;17.83;;;;;;;0.66;74.51;95587.63;4985494;28;20259;-83
2022/03/17 09:15:37;;;;;;;30.67;17.23;;;;;;;4.00;73.74;96125.38;4984650;28;20041;-83
2022/03/17 09:18:03;;;;;;;36.38;18.20;;;;;;;4.16;73.92;96152.97;5002991;28;20032;-82
2022/03/17 09:20:29;;;;;;;29.35;17.80;;;;;;;0.44;74.28;95544.47;5003940;28;20052;-82
2022/03/17 09:22:58;;;;;;;31.27;18.35;;;;;;;5.61;73.25;96315.00;4990688;28;20059;-84
2022/03/17 09:25:26;;;;;;;35.65;19.73;;;;;;;5.29;72.94;96298.44;5010055;28;20033;-82
2022/03/17 09:27:52;;;;;;;29.95;18.75;;;;;;;2.57;73.60;95855.72;5000650;28;20402;-83
2022/03/17 09:30:21;;;;;;;35.42;19.45;;;;;;;1.25;75.25;95661.69;5009855;28;20037;-83
2022/03/17 09:32:52;;;;;;;27.52;17.17;;;;;;;5.30;75.18;96332.44;4999619;28;20034;-83
2022/03/17 09:35:18;;;;;;;21.13;12.52;;;;;;;5.17;72.25;96334.34;4994184;28;20392;-83
2022/03/17 09:37:44;;;;;;;22.83;13.25;;;;;;;3.25;72.99;96018.53;5003402;28;20034;-82
2022/03/17 09:40:10;;;;;;;21.13;13.35;;;;;;;4.47;73.05;96208.16;4988825;28;20306;-82
2022/03/17 09:42:37;;;;;;;21.70;13.82;;;;;;;3.01;73.85;95971.03;5006194;28;20042;-83
2022/03/17 09:45:03;;;;;;;21.50;12.57;;;;;;;4.37;72.31;96209.59;4990055;28;20083;-83
2022/03/17 09:47:49;;;;;;;20.40;12.45;;;;;;;4.04;71.89;96118.69;4989450;28;20033;-84
2022/03/17 09:50:15;;;;;;;19.65;12.07;;;;;;;4.67;72.52;96192.28;5003876;28;20049;-82
2022/03/17 09:52:44;;;;;;;25.48;13.77;;;;;;;5.75;73.76;96356.00;5003753;28;20069;-83
2022/03/17 09:55:10;;;;;;;20.45;12.25;;;;;;;5.66;74.02;96344.94;4999650;28;20153;-83
2022/03/17 09:57:42;;;;;;;20.15;12.13;;;;;;;5.72;71.51;96354.59;4990287;28;20054;-83
2022/03/17 10:00:11;;;;;;;21.35;11.10;;;;;;;4.96;71.31;96211.88;4979928;28;20125;-83
2022/03/17 10:02:37;;;;;;;15.82;10.15;;;;;;;5.12;70.97;96239.50;4983512;28;20200;-83
2022/03/17 10:05:03;;;;;;;19.95;10.43;;;;;;;5.26;71.26;96268.13;4986944;28;20680;-83
2022/03/17 10:07:34;;;;;;;15.98;10.85;;;;;;;2.74;71.50;95913.69;4987460;28;20035;-83
2022/03/17 10:10:00;;;;;;;22.00;11.02;;;;;;;5.33;71.35;96255.75;4984231;28;20030;-84
2022/03/17 10:12:30;;;;;;;18.35;11.32;;;;;;;5.15;69.89;96260.91;4989785;28;20568;-84
2022/03/17 10:14:56;;;;;;;19.10;10.75;;;;;;;4.97;72.16;96245.03;4991614;28;20104;-84
2022/03/17 10:17:37;;;;;;;17.23;9.95;;;;;;;5.81;71.12;96357.78;4978214;28;20038;-83
2022/03/17 10:20:41;;;;;;;18.67;10.60;;;;;;;5.75;69.91;96350.75;4978937;28;20062;-83
2022/03/17 10:23:07;;;;;;;22.77;10.85;;;;;;;4.83;70.52;96231.19;4903006;29;20209;-82
2022/03/17 10:25:34;;;;;;;17.33;9.85;;;;;;;5.68;70.99;96353.41;4907910;29;20387;-83
2022/03/17 10:28:01;;;;;;;18.73;10.27;;;;;;;4.30;70.47;96119.56;4955105;28;20113;-83
2022/03/17 10:30:34;;;;;;;16.60;10.13;;;;;;;4.71;70.73;96174.28;4994846;28;20493;-83
2022/03/17 10:33:04;;;;;;;19.48;10.15;;;;;;;5.28;69.88;96302.09;4976524;28;20064;-83
2022/03/17 10:35:35;;;;;;;14.90;8.85;;;;;;;5.77;71.19;96361.88;4979743;28;20049;-83
2022/03/17 10:38:23;;;;;;;13.85;9.60;;;;;;;5.37;70.65;96275.31;4973644;28;20617;-83
2022/03/17 10:41:12;;;;;;;16.63;9.02;;;;;;;5.47;70.26;96310.88;4979571;28;20544;-84
2022/03/17 10:43:39;;;;;;;13.48;8.93;;;;;;;5.04;69.25;96269.47;4973145;28;20073;-84
2022/03/17 10:46:20;;;;;;;18.98;10.23;;;;;;;4.83;70.74;96222.50;4975587;28;20034;-84
2022/03/17 10:48:51;;;;;;;14.27;9.32;;;;;;;5.72;70.89;96353.81;4977101;28;20049;-84
2022/03/17 10:51:52;;;;;;;13.07;7.88;;;;;;;5.66;70.81;96355.47;4978784;28;20057;-84
2022/03/17 10:54:18;;;;;;;13.33;8.63;;;;;;;5.64;70.60;96330.38;4966079;28;21430;-84
2022/03/17 10:57:02;;;;;;;13.15;8.45;;;;;;;4.75;69.48;96180.69;4981398;28;20122;-84
2022/03/17 10:59:43;;;;;;;15.75;10.23;;;;;;;5.68;69.95;96381.56;4981170;28;20061;-84
2022/03/17 11:02:11;;;;;;;14.05;8.20;;;;;;;4.55;70.43;96207.91;4974713;28;20031;-83
2022/03/17 11:04:43;;;;;;;17.90;10.07;;;;;;;5.70;71.01;96359.28;4972076;28;20042;-83
2022/03/17 11:07:13;;;;;;;16.67;9.38;;;;;;;3.78;70.50;96040.09;4981010;28;20051;-82
2022/03/17 11:09:40;;;;;;;15.18;9.85;;;;;;;5.29;70.17;96312.41;4969796;28;20038;-83
2022/03/17 11:12:20;;;;;;;;;;;;;;;;;;;;;
2022/03/17 11:14:59;;;;;;;19.08;11.73;;;;;;;4.39;69.19;96142.72;4988595;28;20038;-82
2022/03/17 11:17:47;;;;;;;26.48;13.90;;;;;;;5.58;71.07;96354.91;4969816;28;20037;-82
2022/03/17 11:20:18;;;;;;;21.52;14.93;;;;;;;5.52;72.67;96347.88;4978741;28;20500;-83
2022/03/17 11:22:50;;;;;;;24.67;15.35;;;;;;;3.83;72.77;96090.91;4961047;28;20411;-82
2022/03/17 11:25:42;;;;;;;25.30;16.05;;;;;;;3.85;71.85;96099.38;4950217;28;20204;-82
2022/03/17 11:28:10;;;;;;;27.27;16.63;;;;;;;3.76;72.72;96086.72;4973736;28;20344;-83
2022/03/17 11:30:45;;;;;;;27.60;16.38;;;;;;;5.37;72.30;96356.88;4949706;28;20583;-83
2022/03/17 11:33:34;;;;;;;24.63;15.30;;;;;;;5.43;72.42;96347.31;4972280;28;20536;-88
2022/03/17 11:36:23;;;;;;;23.02;14.50;;;;;;;5.43;73.15;96347.31;4972378;28;20034;-84
2022/03/17 11:38:55;;;;;;;23.58;14.13;;;;;;;5.41;74.16;96349.38;4979452;28;20048;-83
2022/03/17 11:41:21;;;;;;;21.45;13.57;;;;;;;5.25;74.24;96321.75;4965997;28;20096;-83
2022/03/17 11:43:50;;;;;;;18.02;12.57;;;;;;;5.58;72.77;96339.13;4970080;28;20034;-82
2022/03/17 11:46:20;;;;;;;19.85;12.32;;;;;;;5.44;73.71;96320.00;4974773;28;20616;-83